sensor_id;sensor_type;location;lat;lon;timestamp;temperature;humidity
27858;DHT22;16852;51.446;6.528;2022-09-27T00:01:20;11.90;99.90
27858;DHT22;16852;51.446;6.528;2022-09-27T00:03:20;12.00;99.90
27858;DHT22;16852;51.446;6.528;2022-09-27T00:05:21;12.00;99.90
27858;DHT22;16852;51.446;6.528;2022-09-27T00:07:22;12.00;99.90
27858;DHT22;16852;51.446;6.528;2022-09-27T00:09:22;12.00;99.90
27858;DHT22;16852;51.446;6.528;2022-09-27T00:11:31;12.00;99.90
27858;DHT22;16852;51.446;6.528;2022-09-27T00:13:32;12.00;99.90
27858;DHT22;16852;51.446;6.528;2022-09-27T00:15:33;12.10;99.90
27858;DHT22;16852;51.446;6.528;2022-09-27T00:17:34;12.00;99.90
27858;DHT22;16852;51.446;6.528;2022-09-27T00:19:35;12.10;99.90
27858;DHT22;16852;51.446;6.528;2022-09-27T00:21:35;12.10;99.90
27858;DHT22;16852;51.446;6.528;2022-09-27T00:23:37;12.10;99.90
27858;DHT22;16852;51.446;6.528;2022-09-27T00:25:37;12.10;99.90
27858;DHT22;16852;51.446;6.528;2022-09-27T00:27:38;12.10;99.90
27858;DHT22;16852;51.446;6.528;2022-09-27T00:29:39;12.10;99.90
27858;DHT22;16852;51.446;6.528;2022-09-27T00:31:39;12.10;99.90
27858;DHT22;16852;51.446;6.528;2022-09-27T00:33:40;12.10;99.90
27858;DHT22;16852;51.446;6.528;2022-09-27T00:35:41;12.10;99.90
27858;DHT22;16852;51.446;6.528;2022-09-27T00:37:41;12.00;99.90
27858;DHT22;16852;51.446;6.528;2022-09-27T00:39:42;12.00;99.90
27858;DHT22;16852;51.446;6.528;2022-09-27T00:41:43;12.00;99.90
27858;DHT22;16852;51.446;6.528;2022-09-27T00:43:55;12.10;99.90
27858;DHT22;16852;51.446;6.528;2022-09-27T00:46:00;12.00;99.90
27858;DHT22;16852;51.446;6.528;2022-09-27T00:48:04;12.00;99.90
27858;DHT22;16852;51.446;6.528;2022-09-27T00:50:25;12.00;99.90
27858;DHT22;16852;51.446;6.528;2022-09-27T00:54:51;12.00;99.90
27858;DHT22;16852;51.446;6.528;2022-09-27T00:56:54;12.00;99.90
27858;DHT22;16852;51.446;6.528;2022-09-27T00:59:00;12.00;99.90
27858;DHT22;16852;51.446;6.528;2022-09-27T01:01:05;12.00;99.90
27858;DHT22;16852;51.446;6.528;2022-09-27T01:03:08;12.00;99.90
27858;DHT22;16852;51.446;6.528;2022-09-27T01:05:15;12.00;99.90
27858;DHT22;16852;51.446;6.528;2022-09-27T01:07:17;12.00;99.90
27858;DHT22;16852;51.446;6.528;2022-09-27T01:09:17;12.00;99.90
27858;DHT22;16852;51.446;6.528;2022-09-27T01:11:32;12.00;99.90
27858;DHT22;16852;51.446;6.528;2022-09-27T01:13:57;12.00;99.90
27858;DHT22;16852;51.446;6.528;2022-09-27T01:16:17;12.00;99.90
27858;DHT22;16852;51.446;6.528;2022-09-27T01:20:52;11.90;99.90
27858;DHT22;16852;51.446;6.528;2022-09-27T01:25:53;11.90;99.90
27858;DHT22;16852;51.446;6.528;2022-09-27T01:30:40;12.00;99.90
27858;DHT22;16852;51.446;6.528;2022-09-27T01:32:54;12.00;99.90
27858;DHT22;16852;51.446;6.528;2022-09-27T01:37:51;12.00;99.90
27858;DHT22;16852;51.446;6.528;2022-09-27T01:42:22;11.90;99.90
27858;DHT22;16852;51.446;6.528;2022-09-27T01:46:42;11.90;99.90
27858;DHT22;16852;51.446;6.528;2022-09-27T01:48:48;11.90;99.90
27858;DHT22;16852;51.446;6.528;2022-09-27T01:51:05;11.90;99.90
27858;DHT22;16852;51.446;6.528;2022-09-27T01:53:16;11.80;99.90
27858;DHT22;16852;51.446;6.528;2022-09-27T01:55:20;11.90;99.90
27858;DHT22;16852;51.446;6.528;2022-09-27T01:57:25;11.90;99.90
27858;DHT22;16852;51.446;6.528;2022-09-27T02:01:51;11.90;99.90
27858;DHT22;16852;51.446;6.528;2022-09-27T02:03:52;11.80;99.90
27858;DHT22;16852;51.446;6.528;2022-09-27T02:06:01;11.80;99.90
27858;DHT22;16852;51.446;6.528;2022-09-27T02:10:43;11.80;99.90
27858;DHT22;16852;51.446;6.528;2022-09-27T02:12:57;11.80;99.90
27858;DHT22;16852;51.446;6.528;2022-09-27T02:15:09;11.80;99.90
27858;DHT22;16852;51.446;6.528;2022-09-27T02:17:43;11.70;99.90
27858;DHT22;16852;51.446;6.528;2022-09-27T02:19:58;11.70;99.90
27858;DHT22;16852;51.446;6.528;2022-09-27T02:22:26;11.80;99.90
27858;DHT22;16852;51.446;6.528;2022-09-27T02:24:58;11.80;99.90
27858;DHT22;16852;51.446;6.528;2022-09-27T02:27:16;11.70;99.90
27858;DHT22;16852;51.446;6.528;2022-09-27T02:29:29;11.70;99.90
27858;DHT22;16852;51.446;6.528;2022-09-27T02:31:32;11.70;99.90
27858;DHT22;16852;51.446;6.528;2022-09-27T02:33:45;11.70;99.90
27858;DHT22;16852;51.446;6.528;2022-09-27T02:35:46;11.70;99.90
27858;DHT22;16852;51.446;6.528;2022-09-27T02:37:47;11.70;99.90
27858;DHT22;16852;51.446;6.528;2022-09-27T02:39:48;11.70;99.90
27858;DHT22;16852;51.446;6.528;2022-09-27T02:41:49;11.70;99.90
27858;DHT22;16852;51.446;6.528;2022-09-27T02:43:57;11.70;99.90
27858;DHT22;16852;51.446;6.528;2022-09-27T02:51:23;11.70;99.90
27858;DHT22;16852;51.446;6.528;2022-09-27T02:56:01;11.70;99.90
27858;DHT22;16852;51.446;6.528;2022-09-27T03:00:29;11.60;99.90
27858;DHT22;16852;51.446;6.528;2022-09-27T03:04:54;11.60;99.90
27858;DHT22;16852;51.446;6.528;2022-09-27T03:06:57;11.60;99.90
27858;DHT22;16852;51.446;6.528;2022-09-27T03:08:59;11.50;99.90
27858;DHT22;16852;51.446;6.528;2022-09-27T03:10:59;11.50;99.90
27858;DHT22;16852;51.446;6.528;2022-09-27T03:13:00;11.40;99.90
27858;DHT22;16852;51.446;6.528;2022-09-27T03:15:01;11.50;99.90
27858;DHT22;16852;51.446;6.528;2022-09-27T03:17:02;11.50;99.90
27858;DHT22;16852;51.446;6.528;2022-09-27T03:19:02;11.50;99.90
27858;DHT22;16852;51.446;6.528;2022-09-27T03:21:03;11.40;99.90
27858;DHT22;16852;51.446;6.528;2022-09-27T03:23:03;11.40;99.90
27858;DHT22;16852;51.446;6.528;2022-09-27T03:25:05;11.40;99.90
27858;DHT22;16852;51.446;6.528;2022-09-27T03:27:06;11.40;99.90
27858;DHT22;16852;51.446;6.528;2022-09-27T03:29:06;11.40;99.90
27858;DHT22;16852;51.446;6.528;2022-09-27T03:31:07;11.30;99.90
27858;DHT22;16852;51.446;6.528;2022-09-27T03:33:08;11.30;99.90
27858;DHT22;16852;51.446;6.528;2022-09-27T03:35:09;11.30;99.90
27858;DHT22;16852;51.446;6.528;2022-09-27T03:37:09;11.30;99.90
27858;DHT22;16852;51.446;6.528;2022-09-27T03:39:10;11.30;99.90
27858;DHT22;16852;51.446;6.528;2022-09-27T03:41:11;11.20;99.90
27858;DHT22;16852;51.446;6.528;2022-09-27T03:43:12;11.20;99.90
27858;DHT22;16852;51.446;6.528;2022-09-27T03:45:12;11.30;99.90
27858;DHT22;16852;51.446;6.528;2022-09-27T03:47:13;11.30;99.90
27858;DHT22;16852;51.446;6.528;2022-09-27T03:49:13;11.20;99.90
27858;DHT22;16852;51.446;6.528;2022-09-27T03:51:14;11.20;99.90
27858;DHT22;16852;51.446;6.528;2022-09-27T03:53:15;11.20;99.90
27858;DHT22;16852;51.446;6.528;2022-09-27T03:55:15;11.20;99.90
27858;DHT22;16852;51.446;6.528;2022-09-27T03:57:16;11.10;99.90
27858;DHT22;16852;51.446;6.528;2022-09-27T03:59:16;11.10;99.90
27858;DHT22;16852;51.446;6.528;2022-09-27T04:01:17;11.20;99.90
27858;DHT22;16852;51.446;6.528;2022-09-27T04:03:18;11.20;99.90
27858;DHT22;16852;51.446;6.528;2022-09-27T04:05:19;11.30;99.90
27858;DHT22;16852;51.446;6.528;2022-09-27T04:07:19;11.20;99.90
27858;DHT22;16852;51.446;6.528;2022-09-27T04:09:20;11.20;99.90
27858;DHT22;16852;51.446;6.528;2022-09-27T04:11:20;11.20;99.90
27858;DHT22;16852;51.446;6.528;2022-09-27T04:13:23;11.20;99.90
27858;DHT22;16852;51.446;6.528;2022-09-27T04:15:23;11.20;99.90
27858;DHT22;16852;51.446;6.528;2022-09-27T04:17:24;11.20;99.90
27858;DHT22;16852;51.446;6.528;2022-09-27T04:19:26;11.10;99.90
27858;DHT22;16852;51.446;6.528;2022-09-27T04:21:27;11.10;99.90
27858;DHT22;16852;51.446;6.528;2022-09-27T04:23:27;11.10;99.90
27858;DHT22;16852;51.446;6.528;2022-09-27T04:25:28;11.10;99.90
27858;DHT22;16852;51.446;6.528;2022-09-27T04:27:29;11.10;99.90
27858;DHT22;16852;51.446;6.528;2022-09-27T04:29:29;11.10;99.90
27858;DHT22;16852;51.446;6.528;2022-09-27T04:31:31;11.10;99.90
27858;DHT22;16852;51.446;6.528;2022-09-27T04:33:31;11.10;99.90
27858;DHT22;16852;51.446;6.528;2022-09-27T04:35:32;11.10;99.90
27858;DHT22;16852;51.446;6.528;2022-09-27T04:37:51;11.20;99.90
27858;DHT22;16852;51.446;6.528;2022-09-27T04:39:52;11.10;99.90
27858;DHT22;16852;51.446;6.528;2022-09-27T04:41:52;11.10;99.90
27858;DHT22;16852;51.446;6.528;2022-09-27T04:43:55;11.10;99.90
27858;DHT22;16852;51.446;6.528;2022-09-27T04:45:55;11.10;99.90
27858;DHT22;16852;51.446;6.528;2022-09-27T04:47:56;11.10;99.90
27858;DHT22;16852;51.446;6.528;2022-09-27T04:49:56;11.00;99.90
27858;DHT22;16852;51.446;6.528;2022-09-27T04:51:57;11.00;99.90
27858;DHT22;16852;51.446;6.528;2022-09-27T04:53:58;11.00;99.90
27858;DHT22;16852;51.446;6.528;2022-09-27T04:55:59;11.00;99.90
27858;DHT22;16852;51.446;6.528;2022-09-27T04:58:01;10.90;99.90
27858;DHT22;16852;51.446;6.528;2022-09-27T05:00:03;10.90;99.90
27858;DHT22;16852;51.446;6.528;2022-09-27T05:02:04;10.90;99.90
27858;DHT22;16852;51.446;6.528;2022-09-27T05:04:05;10.70;99.90
27858;DHT22;16852;51.446;6.528;2022-09-27T05:06:05;10.80;99.90
27858;DHT22;16852;51.446;6.528;2022-09-27T05:08:06;10.70;99.90
27858;DHT22;16852;51.446;6.528;2022-09-27T05:10:08;10.80;99.90
27858;DHT22;16852;51.446;6.528;2022-09-27T05:12:09;10.70;99.90
27858;DHT22;16852;51.446;6.528;2022-09-27T05:14:09;10.80;99.90
27858;DHT22;16852;51.446;6.528;2022-09-27T05:16:10;10.80;99.90
27858;DHT22;16852;51.446;6.528;2022-09-27T05:18:10;10.80;99.90
27858;DHT22;16852;51.446;6.528;2022-09-27T05:20:11;10.70;99.90
27858;DHT22;16852;51.446;6.528;2022-09-27T05:22:13;10.80;99.90
27858;DHT22;16852;51.446;6.528;2022-09-27T05:24:14;10.70;99.90
27858;DHT22;16852;51.446;6.528;2022-09-27T05:26:14;10.70;99.90
27858;DHT22;16852;51.446;6.528;2022-09-27T05:28:15;10.70;99.90
27858;DHT22;16852;51.446;6.528;2022-09-27T05:30:16;10.70;99.90
27858;DHT22;16852;51.446;6.528;2022-09-27T05:32:16;10.60;99.90
27858;DHT22;16852;51.446;6.528;2022-09-27T05:34:17;10.60;99.90
27858;DHT22;16852;51.446;6.528;2022-09-27T05:36:19;10.70;99.90
27858;DHT22;16852;51.446;6.528;2022-09-27T05:38:20;10.70;99.90
27858;DHT22;16852;51.446;6.528;2022-09-27T05:40:22;10.70;99.90
27858;DHT22;16852;51.446;6.528;2022-09-27T05:42:23;10.70;99.90
27858;DHT22;16852;51.446;6.528;2022-09-27T05:44:24;10.70;99.90
27858;DHT22;16852;51.446;6.528;2022-09-27T05:46:25;10.70;99.90
27858;DHT22;16852;51.446;6.528;2022-09-27T05:48:25;10.70;99.90
27858;DHT22;16852;51.446;6.528;2022-09-27T05:50:30;10.70;99.90
27858;DHT22;16852;51.446;6.528;2022-09-27T05:52:30;10.70;99.90
27858;DHT22;16852;51.446;6.528;2022-09-27T05:54:31;10.80;99.90
27858;DHT22;16852;51.446;6.528;2022-09-27T05:56:32;10.80;99.90
27858;DHT22;16852;51.446;6.528;2022-09-27T05:58:32;10.80;99.90
27858;DHT22;16852;51.446;6.528;2022-09-27T06:00:34;10.80;99.90
27858;DHT22;16852;51.446;6.528;2022-09-27T06:02:35;10.80;99.90
27858;DHT22;16852;51.446;6.528;2022-09-27T06:04:36;10.90;99.90
27858;DHT22;16852;51.446;6.528;2022-09-27T06:06:36;10.90;99.90
27858;DHT22;16852;51.446;6.528;2022-09-27T06:08:38;10.90;99.90
27858;DHT22;16852;51.446;6.528;2022-09-27T06:10:39;10.80;99.90
27858;DHT22;16852;51.446;6.528;2022-09-27T06:12:41;10.80;99.90
27858;DHT22;16852;51.446;6.528;2022-09-27T06:14:41;10.80;99.90
27858;DHT22;16852;51.446;6.528;2022-09-27T06:16:42;10.80;99.90
27858;DHT22;16852;51.446;6.528;2022-09-27T06:18:43;10.70;99.90
27858;DHT22;16852;51.446;6.528;2022-09-27T06:20:43;10.70;99.90
27858;DHT22;16852;51.446;6.528;2022-09-27T06:22:44;10.80;99.90
27858;DHT22;16852;51.446;6.528;2022-09-27T06:24:45;10.70;99.90
27858;DHT22;16852;51.446;6.528;2022-09-27T06:26:46;10.70;99.90
27858;DHT22;16852;51.446;6.528;2022-09-27T06:28:47;10.80;99.90
27858;DHT22;16852;51.446;6.528;2022-09-27T06:30:48;10.80;99.90
27858;DHT22;16852;51.446;6.528;2022-09-27T06:32:55;10.80;99.90
27858;DHT22;16852;51.446;6.528;2022-09-27T06:34:56;10.80;99.90
27858;DHT22;16852;51.446;6.528;2022-09-27T06:36:57;10.80;99.90
27858;DHT22;16852;51.446;6.528;2022-09-27T06:38:57;10.80;99.90
27858;DHT22;16852;51.446;6.528;2022-09-27T06:41:02;10.80;99.90
27858;DHT22;16852;51.446;6.528;2022-09-27T06:43:08;10.80;99.90
27858;DHT22;16852;51.446;6.528;2022-09-27T06:45:09;10.90;99.90
27858;DHT22;16852;51.446;6.528;2022-09-27T06:47:10;10.90;99.90
27858;DHT22;16852;51.446;6.528;2022-09-27T06:49:11;10.90;99.90
27858;DHT22;16852;51.446;6.528;2022-09-27T06:51:11;10.90;99.90
27858;DHT22;16852;51.446;6.528;2022-09-27T06:53:14;10.90;99.90
27858;DHT22;16852;51.446;6.528;2022-09-27T06:55:15;10.90;99.90
27858;DHT22;16852;51.446;6.528;2022-09-27T06:57:16;10.90;99.90
27858;DHT22;16852;51.446;6.528;2022-09-27T06:59:36;10.90;99.90
27858;DHT22;16852;51.446;6.528;2022-09-27T07:01:55;10.90;99.90
27858;DHT22;16852;51.446;6.528;2022-09-27T07:03:56;10.90;99.90
27858;DHT22;16852;51.446;6.528;2022-09-27T07:05:59;10.90;99.90
27858;DHT22;16852;51.446;6.528;2022-09-27T07:08:00;10.90;99.90
27858;DHT22;16852;51.446;6.528;2022-09-27T07:10:01;10.80;99.90
27858;DHT22;16852;51.446;6.528;2022-09-27T07:12:01;10.90;99.90
27858;DHT22;16852;51.446;6.528;2022-09-27T07:14:03;10.90;99.90
27858;DHT22;16852;51.446;6.528;2022-09-27T07:16:09;10.90;99.90
27858;DHT22;16852;51.446;6.528;2022-09-27T07:18:10;11.00;99.90
27858;DHT22;16852;51.446;6.528;2022-09-27T07:20:10;11.00;99.90
27858;DHT22;16852;51.446;6.528;2022-09-27T07:22:11;11.00;99.90
27858;DHT22;16852;51.446;6.528;2022-09-27T07:24:11;11.00;99.90
27858;DHT22;16852;51.446;6.528;2022-09-27T07:26:12;11.00;99.90
27858;DHT22;16852;51.446;6.528;2022-09-27T07:28:14;11.10;99.90
27858;DHT22;16852;51.446;6.528;2022-09-27T07:30:15;11.10;99.90
27858;DHT22;16852;51.446;6.528;2022-09-27T07:32:16;11.20;99.90
27858;DHT22;16852;51.446;6.528;2022-09-27T07:34:17;11.20;99.90
27858;DHT22;16852;51.446;6.528;2022-09-27T07:36:18;11.20;99.90
27858;DHT22;16852;51.446;6.528;2022-09-27T07:38:18;11.30;99.90
27858;DHT22;16852;51.446;6.528;2022-09-27T07:40:19;11.30;99.90
27858;DHT22;16852;51.446;6.528;2022-09-27T07:42:20;11.30;99.90
27858;DHT22;16852;51.446;6.528;2022-09-27T07:44:20;11.30;99.90
27858;DHT22;16852;51.446;6.528;2022-09-27T07:46:21;11.40;99.90
27858;DHT22;16852;51.446;6.528;2022-09-27T07:48:21;11.40;99.90
27858;DHT22;16852;51.446;6.528;2022-09-27T07:50:22;11.40;99.90
27858;DHT22;16852;51.446;6.528;2022-09-27T07:52:23;11.40;99.90
27858;DHT22;16852;51.446;6.528;2022-09-27T07:54:23;11.50;99.90
27858;DHT22;16852;51.446;6.528;2022-09-27T07:56:24;11.40;99.90
27858;DHT22;16852;51.446;6.528;2022-09-27T07:58:24;11.40;99.90
27858;DHT22;16852;51.446;6.528;2022-09-27T08:00:25;11.50;99.90
27858;DHT22;16852;51.446;6.528;2022-09-27T08:02:26;11.40;99.90
27858;DHT22;16852;51.446;6.528;2022-09-27T08:04:27;11.40;99.90
27858;DHT22;16852;51.446;6.528;2022-09-27T08:06:28;11.40;99.90
27858;DHT22;16852;51.446;6.528;2022-09-27T08:08:29;11.40;99.90
27858;DHT22;16852;51.446;6.528;2022-09-27T08:10:31;11.50;99.90
27858;DHT22;16852;51.446;6.528;2022-09-27T08:12:32;11.50;99.90
27858;DHT22;16852;51.446;6.528;2022-09-27T08:14:32;11.50;99.90
27858;DHT22;16852;51.446;6.528;2022-09-27T08:16:33;11.60;99.90
27858;DHT22;16852;51.446;6.528;2022-09-27T08:18:34;11.60;99.90
27858;DHT22;16852;51.446;6.528;2022-09-27T08:20:35;11.60;99.90
27858;DHT22;16852;51.446;6.528;2022-09-27T08:22:42;11.60;99.90
27858;DHT22;16852;51.446;6.528;2022-09-27T08:24:42;11.50;99.90
27858;DHT22;16852;51.446;6.528;2022-09-27T08:26:43;11.50;99.90
27858;DHT22;16852;51.446;6.528;2022-09-27T08:28:46;11.50;99.90
27858;DHT22;16852;51.446;6.528;2022-09-27T08:30:48;11.60;99.90
27858;DHT22;16852;51.446;6.528;2022-09-27T08:32:49;11.50;99.90
27858;DHT22;16852;51.446;6.528;2022-09-27T08:34:53;11.50;99.90
27858;DHT22;16852;51.446;6.528;2022-09-27T08:36:54;11.50;99.90
27858;DHT22;16852;51.446;6.528;2022-09-27T08:38:55;11.50;99.90
27858;DHT22;16852;51.446;6.528;2022-09-27T08:41:03;11.50;99.90
27858;DHT22;16852;51.446;6.528;2022-09-27T08:43:44;11.60;99.90
27858;DHT22;16852;51.446;6.528;2022-09-27T08:46:22;11.60;99.90
27858;DHT22;16852;51.446;6.528;2022-09-27T08:48:19;11.70;99.90
27858;DHT22;16852;51.446;6.528;2022-09-27T08:50:35;11.70;99.90
27858;DHT22;16852;51.446;6.528;2022-09-27T08:52:43;11.70;99.90
27858;DHT22;16852;51.446;6.528;2022-09-27T08:54:46;11.70;99.90
27858;DHT22;16852;51.446;6.528;2022-09-27T08:56:47;11.70;99.90
27858;DHT22;16852;51.446;6.528;2022-09-27T08:59:24;11.70;99.90
27858;DHT22;16852;51.446;6.528;2022-09-27T09:01:27;11.60;99.90
27858;DHT22;16852;51.446;6.528;2022-09-27T09:03:38;11.60;99.90
27858;DHT22;16852;51.446;6.528;2022-09-27T09:05:39;11.60;99.90
27858;DHT22;16852;51.446;6.528;2022-09-27T09:07:44;11.50;99.90
27858;DHT22;16852;51.446;6.528;2022-09-27T09:10:06;11.60;99.90
27858;DHT22;16852;51.446;6.528;2022-09-27T09:12:58;11.60;99.90
27858;DHT22;16852;51.446;6.528;2022-09-27T09:15:11;11.60;99.90
27858;DHT22;16852;51.446;6.528;2022-09-27T09:17:36;11.60;99.90
27858;DHT22;16852;51.446;6.528;2022-09-27T09:20:02;11.70;99.90
27858;DHT22;16852;51.446;6.528;2022-09-27T09:34:38;11.80;99.90
27858;DHT22;16852;51.446;6.528;2022-09-27T09:37:04;11.80;99.90
27858;DHT22;16852;51.446;6.528;2022-09-27T09:39:18;11.80;99.90
27858;DHT22;16852;51.446;6.528;2022-09-27T09:41:30;11.90;99.90
27858;DHT22;16852;51.446;6.528;2022-09-27T09:45:48;11.90;99.90
27858;DHT22;16852;51.446;6.528;2022-09-27T09:50:44;12.00;99.90
27858;DHT22;16852;51.446;6.528;2022-09-27T09:52:50;12.10;99.90
27858;DHT22;16852;51.446;6.528;2022-09-27T09:55:03;12.10;99.90
27858;DHT22;16852;51.446;6.528;2022-09-27T09:59:18;12.20;99.90
27858;DHT22;16852;51.446;6.528;2022-09-27T10:01:26;12.20;99.90
27858;DHT22;16852;51.446;6.528;2022-09-27T10:03:27;12.20;99.90
27858;DHT22;16852;51.446;6.528;2022-09-27T10:05:28;12.20;99.90
27858;DHT22;16852;51.446;6.528;2022-09-27T10:07:31;12.20;99.90
27858;DHT22;16852;51.446;6.528;2022-09-27T10:09:32;12.30;99.90
27858;DHT22;16852;51.446;6.528;2022-09-27T10:11:41;12.20;99.90
27858;DHT22;16852;51.446;6.528;2022-09-27T10:13:42;12.30;99.90
27858;DHT22;16852;51.446;6.528;2022-09-27T10:15:58;12.30;99.90
27858;DHT22;16852;51.446;6.528;2022-09-27T10:18:01;12.30;99.90
27858;DHT22;16852;51.446;6.528;2022-09-27T10:20:04;12.40;99.90
27858;DHT22;16852;51.446;6.528;2022-09-27T10:22:35;12.30;99.90
27858;DHT22;16852;51.446;6.528;2022-09-27T10:26:59;12.30;99.90
27858;DHT22;16852;51.446;6.528;2022-09-27T10:31:19;12.20;99.90
27858;DHT22;16852;51.446;6.528;2022-09-27T10:33:20;12.20;99.90
27858;DHT22;16852;51.446;6.528;2022-09-27T10:37:28;12.30;99.90
27858;DHT22;16852;51.446;6.528;2022-09-27T10:39:29;12.30;99.90
27858;DHT22;16852;51.446;6.528;2022-09-27T10:41:40;12.30;99.90
27858;DHT22;16852;51.446;6.528;2022-09-27T10:43:41;12.30;99.90
27858;DHT22;16852;51.446;6.528;2022-09-27T10:45:42;12.30;99.90
27858;DHT22;16852;51.446;6.528;2022-09-27T10:47:43;12.40;99.90
27858;DHT22;16852;51.446;6.528;2022-09-27T10:49:43;12.30;99.90
27858;DHT22;16852;51.446;6.528;2022-09-27T10:51:48;12.30;99.90
27858;DHT22;16852;51.446;6.528;2022-09-27T10:53:49;12.30;99.90
27858;DHT22;16852;51.446;6.528;2022-09-27T10:55:51;12.30;99.90
27858;DHT22;16852;51.446;6.528;2022-09-27T10:57:53;12.30;99.90
27858;DHT22;16852;51.446;6.528;2022-09-27T10:59:55;12.20;99.90
27858;DHT22;16852;51.446;6.528;2022-09-27T11:01:57;12.30;99.90
27858;DHT22;16852;51.446;6.528;2022-09-27T11:03:59;12.30;99.90
27858;DHT22;16852;51.446;6.528;2022-09-27T11:05:59;12.40;99.90
27858;DHT22;16852;51.446;6.528;2022-09-27T11:10:29;12.50;99.90
27858;DHT22;16852;51.446;6.528;2022-09-27T11:12:31;12.50;99.90
27858;DHT22;16852;51.446;6.528;2022-09-27T11:14:34;12.50;99.90
27858;DHT22;16852;51.446;6.528;2022-09-27T11:26:20;12.60;99.90
27858;DHT22;16852;51.446;6.528;2022-09-27T11:28:47;12.60;99.90
27858;DHT22;16852;51.446;6.528;2022-09-27T11:33:28;12.50;99.90
27858;DHT22;16852;51.446;6.528;2022-09-27T11:38:31;12.50;99.90
27858;DHT22;16852;51.446;6.528;2022-09-27T11:45:41;12.40;99.90
27858;DHT22;16852;51.446;6.528;2022-09-27T11:48:06;12.40;99.90
27858;DHT22;16852;51.446;6.528;2022-09-27T11:53:03;12.40;99.90
27858;DHT22;16852;51.446;6.528;2022-09-27T11:55:18;12.40;99.90
27858;DHT22;16852;51.446;6.528;2022-09-27T11:57:41;12.40;99.90
27858;DHT22;16852;51.446;6.528;2022-09-27T12:09:29;12.20;99.90
27858;DHT22;16852;51.446;6.528;2022-09-27T12:11:45;12.20;99.90
27858;DHT22;16852;51.446;6.528;2022-09-27T12:13:53;12.20;99.90
27858;DHT22;16852;51.446;6.528;2022-09-27T12:15:55;12.10;99.90
27858;DHT22;16852;51.446;6.528;2022-09-27T12:18:08;12.20;99.90
27858;DHT22;16852;51.446;6.528;2022-09-27T12:20:22;12.20;99.90
27858;DHT22;16852;51.446;6.528;2022-09-27T12:22:33;12.20;99.90
27858;DHT22;16852;51.446;6.528;2022-09-27T12:24:36;12.20;99.90
27858;DHT22;16852;51.446;6.528;2022-09-27T12:26:42;12.10;99.90
27858;DHT22;16852;51.446;6.528;2022-09-27T12:31:17;12.20;99.90
27858;DHT22;16852;51.446;6.528;2022-09-27T12:33:50;12.20;99.90
27858;DHT22;16852;51.446;6.528;2022-09-27T12:35:54;12.20;99.90
27858;DHT22;16852;51.446;6.528;2022-09-27T12:38:09;12.30;99.90
27858;DHT22;16852;51.446;6.528;2022-09-27T12:40:28;12.40;99.90
27858;DHT22;16852;51.446;6.528;2022-09-27T12:42:39;12.40;99.90
27858;DHT22;16852;51.446;6.528;2022-09-27T12:44:41;12.50;99.90
27858;DHT22;16852;51.446;6.528;2022-09-27T12:51:13;12.40;99.90
27858;DHT22;16852;51.446;6.528;2022-09-27T12:53:35;12.40;99.90
27858;DHT22;16852;51.446;6.528;2022-09-27T12:55:53;12.50;99.90
27858;DHT22;16852;51.446;6.528;2022-09-27T12:58:41;12.50;99.90
27858;DHT22;16852;51.446;6.528;2022-09-27T13:00:58;12.60;99.90
27858;DHT22;16852;51.446;6.528;2022-09-27T13:03:20;12.60;99.90
27858;DHT22;16852;51.446;6.528;2022-09-27T13:07:34;12.60;99.90
27858;DHT22;16852;51.446;6.528;2022-09-27T13:12:13;12.60;99.90
27858;DHT22;16852;51.446;6.528;2022-09-27T13:14:20;12.70;99.90
27858;DHT22;16852;51.446;6.528;2022-09-27T13:16:23;12.80;99.90
27858;DHT22;16852;51.446;6.528;2022-09-27T13:22:36;13.00;99.90
27858;DHT22;16852;51.446;6.528;2022-09-27T13:26:43;13.10;99.90
27858;DHT22;16852;51.446;6.528;2022-09-27T13:30:51;13.10;99.90
27858;DHT22;16852;51.446;6.528;2022-09-27T13:35:20;13.20;99.90
27858;DHT22;16852;51.446;6.528;2022-09-27T13:39:43;13.20;99.90
27858;DHT22;16852;51.446;6.528;2022-09-27T13:43:58;13.30;99.90
27858;DHT22;16852;51.446;6.528;2022-09-27T13:46:14;13.30;99.90
27858;DHT22;16852;51.446;6.528;2022-09-27T13:48:22;13.40;99.90
27858;DHT22;16852;51.446;6.528;2022-09-27T13:50:37;13.40;99.90
27858;DHT22;16852;51.446;6.528;2022-09-27T13:52:42;13.30;99.90
27858;DHT22;16852;51.446;6.528;2022-09-27T13:56:54;13.40;99.90
27858;DHT22;16852;51.446;6.528;2022-09-27T13:58:58;13.40;99.90
27858;DHT22;16852;51.446;6.528;2022-09-27T14:01:09;13.40;99.90
27858;DHT22;16852;51.446;6.528;2022-09-27T14:05:17;13.30;99.90
27858;DHT22;16852;51.446;6.528;2022-09-27T14:07:35;13.30;99.90
27858;DHT22;16852;51.446;6.528;2022-09-27T14:09:41;13.20;99.90
27858;DHT22;16852;51.446;6.528;2022-09-27T14:11:43;13.20;99.90
27858;DHT22;16852;51.446;6.528;2022-09-27T14:13:48;13.20;99.90
27858;DHT22;16852;51.446;6.528;2022-09-27T14:15:50;13.10;99.90
27858;DHT22;16852;51.446;6.528;2022-09-27T14:17:51;13.10;99.90
27858;DHT22;16852;51.446;6.528;2022-09-27T14:19:52;13.10;99.90
27858;DHT22;16852;51.446;6.528;2022-09-27T14:21:54;13.10;99.90
27858;DHT22;16852;51.446;6.528;2022-09-27T14:26:33;13.00;99.90
27858;DHT22;16852;51.446;6.528;2022-09-27T14:28:40;13.10;99.90
27858;DHT22;16852;51.446;6.528;2022-09-27T14:30:41;13.10;99.90
27858;DHT22;16852;51.446;6.528;2022-09-27T14:32:48;13.10;99.90
27858;DHT22;16852;51.446;6.528;2022-09-27T14:35:18;13.10;99.90
27858;DHT22;16852;51.446;6.528;2022-09-27T14:37:37;13.10;99.90
27858;DHT22;16852;51.446;6.528;2022-09-27T14:39:38;13.00;99.90
27858;DHT22;16852;51.446;6.528;2022-09-27T14:41:38;13.10;99.90
27858;DHT22;16852;51.446;6.528;2022-09-27T14:43:44;13.10;99.90
27858;DHT22;16852;51.446;6.528;2022-09-27T14:46:00;13.10;99.90
27858;DHT22;16852;51.446;6.528;2022-09-27T14:48:04;13.20;99.90
27858;DHT22;16852;51.446;6.528;2022-09-27T14:50:26;13.20;99.90
27858;DHT22;16852;51.446;6.528;2022-09-27T14:52:32;13.20;99.90
27858;DHT22;16852;51.446;6.528;2022-09-27T14:54:34;13.30;99.90
27858;DHT22;16852;51.446;6.528;2022-09-27T14:56:36;13.30;99.90
27858;DHT22;16852;51.446;6.528;2022-09-27T14:58:37;13.30;99.90
27858;DHT22;16852;51.446;6.528;2022-09-27T15:00:38;13.30;99.90
27858;DHT22;16852;51.446;6.528;2022-09-27T15:02:41;13.20;99.90
27858;DHT22;16852;51.446;6.528;2022-09-27T15:04:45;13.20;99.90
27858;DHT22;16852;51.446;6.528;2022-09-27T15:06:47;13.30;99.90
27858;DHT22;16852;51.446;6.528;2022-09-27T15:08:48;13.30;99.90
27858;DHT22;16852;51.446;6.528;2022-09-27T15:10:50;13.30;99.90
27858;DHT22;16852;51.446;6.528;2022-09-27T15:12:53;13.30;99.90
27858;DHT22;16852;51.446;6.528;2022-09-27T15:14:57;13.20;99.90
27858;DHT22;16852;51.446;6.528;2022-09-27T15:16:59;13.30;99.90
27858;DHT22;16852;51.446;6.528;2022-09-27T15:19:15;13.30;99.90
27858;DHT22;16852;51.446;6.528;2022-09-27T15:23:37;13.20;99.90